Inspiration Hornblower — WDC6807 — position and weather

sailwx.info

Track history (hours):
 
Tides and Currents Weather Stations Pressure Air Temp Water Temp Dewpoint Dewpoint Depression Visibility Wind Speed Wind Dir Waves Ship Positions

Inspiration Hornblower

Owner: Hornblower Yachts Inc., San Diego, CA. More information available from US FCC via Universal Licensing System and Coast Guard Vessel Documentation Center.

Last reported at 2018-Jun-16 19:44 UTC. Time now 2018-Jun-19 01:04 UTC.
Position N 32°45' W 117°22'.

Length 68 m; draft 2 m.

Type: Passenger vessel. MMSI: 367061580.

Date/timePositionNaut miles runAvg speedWind from/ knotsBaromVisibWave heightAir tempDewpointWater temp
2018-Jun-16 19:44N 32°45' W 117°22'2 8.9
2018-Jun-16 19:30N 32°47' W 117°23'5 9.1
2018-Jun-16 19:00N 32°51' W 117°26'5 9.3
2018-Jun-16 18:30N 32°54' W 117°30'4 9.0
2018-Jun-16 18:00N 32°58' W 117°33'4 8.8
2018-Jun-16 17:30N 33°01' W 117°36'4 8.8
2018-Jun-16 17:00N 33°05' W 117°39'4 8.7
2018-Jun-16 16:30N 33°08' W 117°42'30 8.8
2018-Jun-16 13:05N 33°32' W 118°04'1 9.3
2018-Jun-16 13:00N 33°33' W 118°05'5 9.2
2018-Jun-16 12:30N 33°37' W 118°08'4 7.6
2018-Jun-16 12:00N 33°40' W 118°10'4 7.6
2018-Jun-16 11:30N 33°44' W 118°11'2 3.5
2018-Jun-16 11:00N 33°45' W 118°12'0 0.5
2018-Jun-16 10:30N 33°46' W 118°12'0 0.0
2018-Jun-15 21:47N 33°46' W 118°12'1 2.0
2018-Jun-15 21:30N 33°45' W 118°11'3 5.1
2018-Jun-15 21:00N 33°43' W 118°13'2 4.7
2018-Jun-15 20:30N 33°45' W 118°11'1 2.2
2018-Jun-15 20:00N 33°46' W 118°12'0 0.0
2018-Jun-15 19:22N 33°46' W 118°12'0 0.0
2018-Jun-15 18:55N 33°46' W 118°12'0 0.0
2018-Jun-15 18:25N 33°46' W 118°12'0 0.0
2018-Jun-15 18:00N 33°46' W 118°12'0 0.0
2018-Jun-15 02:02N 33°46' W 118°12'0 0.0
2018-Jun-15 02:00N 33°46' W 118°12'0 0.0
2018-Jun-15 01:30N 33°46' W 118°12'0 0.0
2018-Jun-15 01:00N 33°46' W 118°12'1 2.0
2018-Jun-15 00:30N 33°45' W 118°11'4 8.1
2018-Jun-15 00:00N 33°41' W 118°10'5 9.1
2018-Jun-14 23:30N 33°36' W 118°09'4 8.8
2018-Jun-14 23:00N 33°32' W 118°08'4 8.6
2018-Jun-14 22:29N 33°29' W 118°05'10 8.9
2018-Jun-14 21:23N 33°20' W 117°58'3 8.9
2018-Jun-14 21:00N 33°18' W 117°55'5 9.3
2018-Jun-14 20:30N 33°14' W 117°52'4 9.0
2018-Jun-14 20:00N 33°11' W 117°48'4 8.9
2018-Jun-14 19:30N 33°08' W 117°44'5 9.2
2018-Jun-14 19:00N 33°05' W 117°41'5 9.4
2018-Jun-14 18:31N 33°01' W 117°37'5 9.5
2018-Jun-14 17:57N 32°57' W 117°33'4 9.3
2018-Jun-14 17:31N 32°54' W 117°30'5 9.5
2018-Jun-14 17:01N 32°50' W 117°27'4 8.8
2018-Jun-14 16:30N 32°46' W 117°24'  
Track history (hours):
 
Tides and Currents Weather Stations Pressure Air Temp Water Temp Dewpoint Dewpoint Depression Visibility Wind Speed Wind Dir Waves Ship Positions

Inspiration Hornblower

Owner: Hornblower Yachts Inc., San Diego, CA. More information available from US FCC via Universal Licensing System and Coast Guard Vessel Documentation Center.

Last reported at 2018-Jun-16 19:44 UTC. Time now 2018-Jun-19 01:04 UTC.
Position N 32°45' W 117°22'.

Length 68 m; draft 2 m.

Type: Passenger vessel. MMSI: 367061580.

Date/timePositionNaut miles runAvg speedWind from/ knotsBaromVisibWave heightAir tempDewpointWater temp
2018-Jun-16 19:44N 32°45' W 117°22'2 8.9
2018-Jun-16 19:30N 32°47' W 117°23'5 9.1
2018-Jun-16 19:00N 32°51' W 117°26'5 9.3
2018-Jun-16 18:30N 32°54' W 117°30'4 9.0
2018-Jun-16 18:00N 32°58' W 117°33'4 8.8
2018-Jun-16 17:30N 33°01' W 117°36'4 8.8
2018-Jun-16 17:00N 33°05' W 117°39'4 8.7
2018-Jun-16 16:30N 33°08' W 117°42'30 8.8
2018-Jun-16 13:05N 33°32' W 118°04'1 9.3
2018-Jun-16 13:00N 33°33' W 118°05'5 9.2
2018-Jun-16 12:30N 33°37' W 118°08'4 7.6
2018-Jun-16 12:00N 33°40' W 118°10'4 7.6
2018-Jun-16 11:30N 33°44' W 118°11'2 3.5
2018-Jun-16 11:00N 33°45' W 118°12'0 0.5
2018-Jun-16 10:30N 33°46' W 118°12'0 0.0
2018-Jun-15 21:47N 33°46' W 118°12'1 2.0
2018-Jun-15 21:30N 33°45' W 118°11'3 5.1
2018-Jun-15 21:00N 33°43' W 118°13'2 4.7
2018-Jun-15 20:30N 33°45' W 118°11'1 2.2
2018-Jun-15 20:00N 33°46' W 118°12'0 0.0
2018-Jun-15 19:22N 33°46' W 118°12'0 0.0
2018-Jun-15 18:55N 33°46' W 118°12'0 0.0
2018-Jun-15 18:25N 33°46' W 118°12'0 0.0
2018-Jun-15 18:00N 33°46' W 118°12'0 0.0
2018-Jun-15 02:02N 33°46' W 118°12'0 0.0
2018-Jun-15 02:00N 33°46' W 118°12'0 0.0
2018-Jun-15 01:30N 33°46' W 118°12'0 0.0
2018-Jun-15 01:00N 33°46' W 118°12'1 2.0
2018-Jun-15 00:30N 33°45' W 118°11'4 8.1
2018-Jun-15 00:00N 33°41' W 118°10'5 9.1
2018-Jun-14 23:30N 33°36' W 118°09'4 8.8
2018-Jun-14 23:00N 33°32' W 118°08'4 8.6
2018-Jun-14 22:29N 33°29' W 118°05'10 8.9
2018-Jun-14 21:23N 33°20' W 117°58'3 8.9
2018-Jun-14 21:00N 33°18' W 117°55'5 9.3
2018-Jun-14 20:30N 33°14' W 117°52'4 9.0
2018-Jun-14 20:00N 33°11' W 117°48'4 8.9
2018-Jun-14 19:30N 33°08' W 117°44'5 9.2
2018-Jun-14 19:00N 33°05' W 117°41'5 9.4
2018-Jun-14 18:31N 33°01' W 117°37'5 9.5
2018-Jun-14 17:57N 32°57' W 117°33'4 9.3
2018-Jun-14 17:31N 32°54' W 117°30'5 9.5
2018-Jun-14 17:01N 32°50' W 117°27'4 8.8
2018-Jun-14 16:30N 32°46' W 117°24'  

Dump ship's entire track history